Time;durP1;ratioP1;P1;durP2;ratioP2;P2;SDS_P1;SDS_P2;PMS_P1;PMS_P2;Temp;Humidity;BMP_temperature;BMP_pressure;BME280_temperature;BME280_humidity;BME280_pressure;Samples;Min_cycle;Max_cycle;Signal;HPM_P1;HPM_P2
2022/05/15 00:01:47;;;;;;;17.20;7.40;;;12.00;87.40;;;;;;5000360;28;20502;-73
2022/05/15 00:04:12;;;;;;;20.00;7.32;;;12.00;86.80;;;;;;5009639;28;20021;-74
2022/05/15 00:06:38;;;;;;;15.38;5.72;;;12.00;87.30;;;;;;5009138;28;20040;-74
2022/05/15 00:09:04;;;;;;;15.35;6.10;;;12.00;87.30;;;;;;5001241;28;20026;-75
2022/05/15 00:11:29;;;;;;;13.27;6.05;;;12.00;87.50;;;;;;5006816;28;20091;-73
2022/05/15 00:13:57;;;;;;;14.85;6.47;;;12.00;87.70;;;;;;5007098;28;20042;-73
2022/05/15 00:16:23;;;;;;;14.35;6.47;;;12.00;87.60;;;;;;5007801;28;20026;-74
2022/05/15 00:18:50;;;;;;;17.02;6.40;;;12.00;88.30;;;;;;5008953;28;20370;-76
2022/05/15 00:21:16;;;;;;;13.13;5.88;;;12.00;87.70;;;;;;5007651;28;20080;-74
2022/05/15 00:23:43;;;;;;;13.88;6.13;;;12.00;87.40;;;;;;5008578;28;20372;-74
2022/05/15 00:26:08;;;;;;;13.50;6.03;;;12.00;87.90;;;;;;5022042;28;20026;-73
2022/05/15 00:28:34;;;;;;;13.85;5.32;;;12.00;87.50;;;;;;5009070;28;20037;-74
2022/05/15 00:31:00;;;;;;;10.98;5.13;;;12.10;87.40;;;;;;5006554;28;20037;-77
2022/05/15 00:33:25;;;;;;;14.85;5.80;;;12.10;88.40;;;;;;5006734;28;20030;-73
2022/05/15 00:35:53;;;;;;;15.55;6.30;;;12.10;87.60;;;;;;5008476;28;20041;-73
2022/05/15 00:38:18;;;;;;;18.73;6.57;;;12.10;87.30;;;;;;5008447;28;20057;-73
2022/05/15 00:40:46;;;;;;;14.82;6.70;;;12.10;87.30;;;;;;4999060;28;20376;-74
2022/05/15 00:43:33;;;;;;;12.60;5.43;;;12.10;87.20;;;;;;5008307;28;20030;-73
2022/05/15 00:45:59;;;;;;;15.25;5.85;;;12.10;87.60;;;;;;5007404;28;20550;-74
2022/05/15 00:48:25;;;;;;;14.48;6.00;;;12.20;86.90;;;;;;5008931;28;20069;-73
2022/05/15 00:50:51;;;;;;;17.00;6.00;;;12.20;86.70;;;;;;5007079;28;20033;-75
2022/05/15 00:53:18;;;;;;;16.50;7.25;;;12.20;87.00;;;;;;5010264;28;20026;-74
2022/05/15 00:55:48;;;;;;;13.25;5.68;;;12.20;87.10;;;;;;5008609;28;20029;-73
2022/05/15 00:58:28;;;;;;;;;;;12.20;87.10;;;;;;5010687;28;20026;-73
2022/05/15 01:00:54;;;;;;;11.88;5.05;;;12.20;86.90;;;;;;5000546;28;19913;-74
2022/05/15 01:03:21;;;;;;;15.48;5.10;;;12.20;87.00;;;;;;5024278;28;20050;-74
2022/05/15 01:05:50;;;;;;;14.57;6.32;;;12.20;87.50;;;;;;5007366;28;20033;-74
2022/05/15 01:08:16;;;;;;;13.55;5.25;;;12.20;87.80;;;;;;5006458;28;20034;-74
2022/05/15 01:10:46;;;;;;;15.55;6.22;;;12.10;87.50;;;;;;5022162;28;20805;-74
2022/05/15 01:13:13;;;;;;;15.35;6.78;;;12.20;87.80;;;;;;5001404;28;20054;-73
2022/05/15 01:15:40;;;;;;;13.63;4.90;;;12.10;88.20;;;;;;5001212;28;20025;-75
2022/05/15 01:18:08;;;;;;;9.63;4.40;;;12.10;88.80;;;;;;5001421;28;20036;-73
2022/05/15 01:20:34;;;;;;;15.80;6.00;;;12.20;88.50;;;;;;5005749;28;20129;-74
2022/05/15 01:23:00;;;;;;;15.15;6.57;;;12.20;89.80;;;;;;5008237;28;20518;-75
2022/05/15 01:25:30;;;;;;;15.43;7.57;;;12.10;90.30;;;;;;5005015;28;20030;-76
2022/05/15 01:28:00;;;;;;;;;;;12.10;90.80;;;;;;5021798;28;20079;-76
2022/05/15 01:30:26;;;;;;;15.55;6.45;;;12.10;90.90;;;;;;5004933;28;19944;-73
2022/05/15 01:32:52;;;;;;;19.17;7.10;;;12.10;90.90;;;;;;5008468;28;20396;-73
2022/05/15 01:35:18;;;;;;;15.02;6.25;;;12.10;90.90;;;;;;5007797;28;20030;-73
2022/05/15 01:37:43;;;;;;;14.20;6.80;;;12.10;91.20;;;;;;5000855;28;20030;-73
2022/05/15 01:40:10;;;;;;;14.50;6.65;;;12.20;91.10;;;;;;5006909;28;20037;-77
2022/05/15 01:42:36;;;;;;;16.40;7.55;;;12.20;90.80;;;;;;5026026;28;20038;-73
2022/05/15 01:45:03;;;;;;;14.77;6.47;;;12.30;90.90;;;;;;5007124;28;20037;-73
2022/05/15 01:47:29;;;;;;;15.70;6.03;;;12.30;90.80;;;;;;5013148;28;20033;-74
2022/05/15 01:49:54;;;;;;;18.27;6.82;;;12.40;90.50;;;;;;5004398;28;20472;-73
2022/05/15 01:52:20;;;;;;;19.17;7.30;;;12.50;90.40;;;;;;5008000;28;20510;-76
2022/05/15 01:54:46;;;;;;;15.93;6.72;;;12.50;90.20;;;;;;5006802;28;20105;-73
2022/05/15 01:57:11;;;;;;;18.70;7.60;;;12.60;90.20;;;;;;5003603;28;20508;-73
2022/05/15 01:59:38;;;;;;;17.02;6.93;;;12.60;90.20;;;;;;5004576;28;20033;-73
2022/05/15 02:02:05;;;;;;;16.77;7.57;;;12.60;90.10;;;;;;4997144;28;20030;-73
2022/05/15 02:04:31;;;;;;;18.58;7.45;;;12.70;90.00;;;;;;5029519;28;20121;-73
2022/05/15 02:06:56;;;;;;;18.25;8.25;;;12.60;90.10;;;;;;5021734;28;20791;-73
2022/05/15 02:09:22;;;;;;;18.58;8.48;;;12.60;90.10;;;;;;5007700;28;20482;-74
2022/05/15 02:11:48;;;;;;;19.05;8.73;;;12.70;90.30;;;;;;4998936;28;20034;-73
2022/05/15 02:14:13;;;;;;;17.90;8.57;;;12.60;90.10;;;;;;5007124;28;20037;-73
2022/05/15 02:16:39;;;;;;;19.73;8.57;;;12.60;90.00;;;;;;5004477;28;20480;-74
2022/05/15 02:19:06;;;;;;;22.13;9.07;;;12.60;90.20;;;;;;5006509;28;20057;-75
2022/05/15 02:21:32;;;;;;;21.17;8.95;;;12.70;90.30;;;;;;5002982;28;20050;-72
2022/05/15 02:23:58;;;;;;;20.52;8.23;;;12.60;90.40;;;;;;5007188;28;20053;-74
2022/05/15 02:26:24;;;;;;;17.38;7.38;;;12.60;90.10;;;;;;5006466;28;20121;-74
2022/05/15 02:28:50;;;;;;;17.35;8.18;;;12.70;89.70;;;;;;4997214;28;20049;-73
2022/05/15 02:31:16;;;;;;;20.35;8.27;;;12.70;88.80;;;;;;5006324;28;20081;-73
2022/05/15 02:33:42;;;;;;;16.70;7.38;;;12.80;88.10;;;;;;5022252;28;20037;-73
2022/05/15 02:36:08;;;;;;;21.73;6.68;;;12.80;87.80;;;;;;5004277;28;20029;-74
2022/05/15 02:38:35;;;;;;;17.67;7.25;;;12.80;87.60;;;;;;5001818;28;20033;-72
2022/05/15 02:41:01;;;;;;;22.35;8.00;;;12.90;87.50;;;;;;5006613;28;20033;-76
2022/05/15 02:43:27;;;;;;;13.82;6.60;;;12.90;87.70;;;;;;5006406;28;20084;-73
2022/05/15 02:45:53;;;;;;;20.63;7.30;;;12.90;87.30;;;;;;4998439;28;20034;-74
2022/05/15 02:51:05;;;;;;;21.60;7.40;;;12.90;87.60;;;;;;5007150;28;20511;-74
2022/05/15 02:53:36;;;;;;;19.60;7.60;;;12.90;87.00;;;;;;5005768;28;20026;-74
2022/05/15 02:56:05;;;;;;;20.38;7.60;;;12.90;87.00;;;;;;5021844;28;20030;-74
2022/05/15 02:58:31;;;;;;;14.80;7.40;;;12.90;87.00;;;;;;5007150;28;20034;-75
2022/05/15 03:00:57;;;;;;;18.38;7.22;;;12.90;87.00;;;;;;5014316;28;20026;-73
2022/05/15 03:03:27;;;;;;;20.77;7.95;;;12.90;87.40;;;;;;5007604;28;20022;-73
2022/05/15 03:05:53;;;;;;;20.05;8.02;;;12.80;87.80;;;;;;4998752;28;20069;-74
2022/05/15 03:08:19;;;;;;;16.95;7.50;;;12.80;88.10;;;;;;5033440;28;20034;-76
2022/05/15 03:10:45;;;;;;;17.23;7.85;;;12.80;88.10;;;;;;5007587;28;20041;-74
2022/05/15 03:13:11;;;;;;;21.30;8.20;;;12.80;88.00;;;;;;5008866;28;20041;-74
2022/05/15 03:15:37;;;;;;;23.02;8.65;;;12.70;88.10;;;;;;5010490;28;20030;-74
2022/05/15 03:18:03;;;;;;;21.50;8.52;;;12.70;87.90;;;;;;5009682;28;20029;-74
2022/05/15 03:20:29;;;;;;;21.40;7.95;;;12.70;87.80;;;;;;4997960;28;20129;-73
2022/05/15 03:22:55;;;;;;;18.08;7.57;;;12.70;87.90;;;;;;5006635;28;20109;-73
2022/05/15 03:25:21;;;;;;;17.98;7.70;;;12.70;87.70;;;;;;5038684;28;20037;-73
2022/05/15 03:27:47;;;;;;;19.17;7.78;;;12.70;88.20;;;;;;4997422;28;20041;-75
2022/05/15 03:30:14;;;;;;;23.15;8.43;;;12.70;88.20;;;;;;5004229;28;20029;-74
2022/05/15 03:32:40;;;;;;;17.23;8.00;;;12.60;88.50;;;;;;5008126;28;20041;-73
2022/05/15 03:35:08;;;;;;;17.70;8.18;;;12.60;88.60;;;;;;5024330;28;20380;-74
2022/05/15 03:37:34;;;;;;;17.27;7.75;;;12.60;88.90;;;;;;5003939;28;20130;-73
2022/05/15 03:39:59;;;;;;;19.50;8.40;;;12.50;89.30;;;;;;5007210;28;20478;-73
2022/05/15 03:42:26;;;;;;;21.17;8.52;;;12.50;89.80;;;;;;5011584;28;20118;-73
2022/05/15 03:44:52;;;;;;;16.77;8.70;;;12.30;90.10;;;;;;5006516;28;20062;-72
2022/05/15 03:47:18;;;;;;;20.50;9.02;;;12.40;90.10;;;;;;5002642;28;20030;-74
2022/05/15 03:49:44;;;;;;;23.63;9.23;;;12.30;90.10;;;;;;5004916;28;20025;-76
2022/05/15 03:52:10;;;;;;;17.88;9.48;;;12.30;90.40;;;;;;5007560;28;20753;-72
2022/05/15 03:54:35;;;;;;;19.02;9.18;;;12.30;90.50;;;;;;5008536;28;20535;-73
2022/05/15 03:57:02;;;;;;;21.77;9.30;;;12.20;90.30;;;;;;5009318;28;20479;-72
2022/05/15 03:59:31;;;;;;;19.73;9.30;;;12.30;90.30;;;;;;5006574;28;20041;-74
2022/05/15 04:01:58;;;;;;;20.13;8.50;;;12.30;90.10;;;;;;5008694;28;20042;-72
2022/05/15 04:04:24;;;;;;;19.67;8.38;;;12.30;90.10;;;;;;5025014;28;20384;-75
2022/05/15 04:06:50;;;;;;;18.52;8.27;;;12.40;90.20;;;;;;5008287;28;20041;-76
2022/05/15 04:09:16;;;;;;;18.25;9.48;;;12.40;90.30;;;;;;5010329;28;20030;-74
2022/05/15 04:11:42;;;;;;;16.55;7.68;;;12.40;90.50;;;;;;5007875;28;20030;-73
2022/05/15 04:14:08;;;;;;;21.42;9.07;;;12.40;90.40;;;;;;5007653;28;20034;-73
2022/05/15 04:16:34;;;;;;;19.55;9.10;;;12.40;90.10;;;;;;5022428;28;20816;-72
2022/05/15 04:19:01;;;;;;;19.77;8.40;;;12.40;90.20;;;;;;5010091;28;20779;-73
2022/05/15 04:21:27;;;;;;;20.52;8.80;;;12.40;90.20;;;;;;5005913;28;20058;-73
2022/05/15 04:23:53;;;;;;;21.42;9.35;;;12.40;90.20;;;;;;5009638;28;20057;-74
2022/05/15 04:26:19;;;;;;;20.92;9.30;;;12.40;90.30;;;;;;5001082;28;20499;-73
2022/05/15 04:28:45;;;;;;;20.98;8.77;;;12.30;90.40;;;;;;5009213;28;20029;-72
2022/05/15 04:31:11;;;;;;;20.70;9.70;;;12.30;90.30;;;;;;5009524;28;20034;-73
2022/05/15 04:33:36;;;;;;;17.70;9.48;;;12.30;90.40;;;;;;5009093;28;20084;-73
2022/05/15 04:36:02;;;;;;;22.98;9.85;;;12.30;90.70;;;;;;4999844;28;20034;-75
2022/05/15 04:38:28;;;;;;;17.35;9.10;;;12.20;90.60;;;;;;5010422;28;20448;-73
2022/05/15 04:40:54;;;;;;;17.25;9.35;;;12.20;90.70;;;;;;5010313;28;20075;-73
2022/05/15 04:43:20;;;;;;;24.52;10.57;;;12.20;90.70;;;;;;5007635;28;20045;-72
2022/05/15 04:45:46;;;;;;;17.23;9.13;;;12.20;91.00;;;;;;5024038;28;20150;-72
2022/05/15 04:48:12;;;;;;;21.52;9.52;;;12.20;91.00;;;;;;5010233;28;20517;-72
2022/05/15 04:50:38;;;;;;;19.00;9.32;;;12.20;91.00;;;;;;5015457;28;20544;-72
2022/05/15 04:53:05;;;;;;;26.50;9.63;;;12.20;91.10;;;;;;5017260;28;20054;-73
2022/05/15 04:55:30;;;;;;;16.85;8.80;;;12.30;91.10;;;;;;5003469;28;20735;-72
2022/05/15 04:57:56;;;;;;;22.08;9.48;;;12.30;91.20;;;;;;5009305;28;20062;-74
2022/05/15 05:00:22;;;;;;;21.65;9.55;;;12.40;90.90;;;;;;5007418;28;20388;-73
2022/05/15 05:02:48;;;;;;;16.23;9.65;;;12.40;90.60;;;;;;5006203;28;20096;-72
2022/05/15 05:05:15;;;;;;;23.80;9.57;;;12.50;90.60;;;;;;5005952;28;20029;-73
2022/05/15 05:07:41;;;;;;;19.98;9.57;;;12.60;90.40;;;;;;5006629;28;20061;-73
2022/05/15 05:10:09;;;;;;;20.15;9.52;;;12.60;90.70;;;;;;5008743;28;20033;-74
2022/05/15 05:12:36;;;;;;;16.95;8.93;;;12.60;90.50;;;;;;5021898;28;20030;-73
2022/05/15 05:15:03;;;;;;;19.60;9.05;;;12.70;90.50;;;;;;5006820;28;20036;-74
2022/05/15 05:17:28;;;;;;;18.02;8.55;;;12.70;90.40;;;;;;5006280;28;20388;-72
2022/05/15 05:19:54;;;;;;;21.25;9.57;;;12.70;90.30;;;;;;5007902;28;20034;-73
2022/05/15 05:22:20;;;;;;;16.33;8.52;;;12.70;90.20;;;;;;5007541;28;20125;-73
2022/05/15 05:24:45;;;;;;;15.05;7.78;;;12.70;90.30;;;;;;5004890;28;20026;-74
2022/05/15 05:27:11;;;;;;;16.55;9.50;;;12.70;90.20;;;;;;5007538;28;20022;-76
2022/05/15 05:29:36;;;;;;;16.10;8.90;;;12.70;90.40;;;;;;5007763;28;20029;-73
2022/05/15 05:32:02;;;;;;;17.08;8.57;;;12.70;90.40;;;;;;5006867;28;20034;-75
2022/05/15 05:34:28;;;;;;;18.35;9.60;;;12.70;90.40;;;;;;5004096;28;20034;-75
2022/05/15 05:36:54;;;;;;;16.95;9.20;;;12.80;90.40;;;;;;5002677;28;20806;-76
2022/05/15 05:39:20;;;;;;;19.13;9.70;;;12.70;90.50;;;;;;4999729;28;20026;-72
2022/05/15 05:41:46;;;;;;;21.25;9.38;;;12.80;90.30;;;;;;5005172;28;20030;-72
2022/05/15 05:44:12;;;;;;;18.48;9.18;;;12.80;90.90;;;;;;5006692;28;20034;-75
2022/05/15 05:46:37;;;;;;;19.50;9.55;;;12.80;90.80;;;;;;5006825;28;20133;-73
2022/05/15 05:49:03;;;;;;;19.23;9.63;;;12.80;90.90;;;;;;5008601;28;20030;-74
2022/05/15 05:51:29;;;;;;;20.63;10.68;;;12.80;90.80;;;;;;5005738;28;20038;-73
2022/05/15 05:53:54;;;;;;;18.58;9.80;;;12.80;90.90;;;;;;5005991;28;20034;-75
2022/05/15 05:56:20;;;;;;;17.10;9.45;;;12.80;90.90;;;;;;5005853;28;20029;-74
2022/05/15 05:58:46;;;;;;;21.17;9.75;;;12.80;91.10;;;;;;5003217;28;20108;-75
2022/05/15 06:01:13;;;;;;;17.17;9.20;;;12.80;91.00;;;;;;5005010;28;20042;-73
2022/05/15 06:06:23;;;;;;;19.35;10.38;;;12.80;91.20;;;;;;5002497;28;20381;-74
2022/05/15 06:08:49;;;;;;;18.27;10.10;;;12.80;91.10;;;;;;5006934;28;20786;-79
2022/05/15 06:11:14;;;;;;;19.38;10.63;;;12.80;91.00;;;;;;4999459;28;20033;-74
2022/05/15 06:13:40;;;;;;;20.73;9.88;;;12.80;91.50;;;;;;5005354;28;20030;-74
2022/05/15 06:16:09;;;;;;;20.38;11.80;;;12.70;91.30;;;;;;5003637;28;20029;-73
2022/05/15 06:18:35;;;;;;;20.17;10.75;;;12.80;91.60;;;;;;5005234;28;20030;-74
2022/05/15 06:21:01;;;;;;;25.27;11.48;;;12.70;91.80;;;;;;5000058;28;20050;-72
2022/05/15 06:23:26;;;;;;;20.40;10.95;;;12.70;91.60;;;;;;5031594;28;20060;-75
2022/05/15 06:25:52;;;;;;;23.52;12.05;;;12.70;91.90;;;;;;5009417;28;20385;-72
2022/05/15 06:28:19;;;;;;;21.35;11.32;;;12.70;92.40;;;;;;5007080;28;20406;-72
2022/05/15 06:30:45;;;;;;;25.10;12.18;;;12.70;92.50;;;;;;5000583;28;20491;-72
2022/05/15 06:33:10;;;;;;;17.27;10.23;;;12.70;92.30;;;;;;5004621;28;20033;-73
2022/05/15 06:35:36;;;;;;;25.98;11.98;;;12.80;91.90;;;;;;5006588;28;20388;-74
2022/05/15 06:38:03;;;;;;;19.85;10.55;;;12.80;92.40;;;;;;5011831;28;20396;-74
2022/05/15 06:40:29;;;;;;;17.55;9.80;;;12.80;92.30;;;;;;5004576;28;20124;-72
2022/05/15 06:42:57;;;;;;;18.88;9.80;;;12.90;92.40;;;;;;5034210;28;20085;-75
2022/05/15 06:45:24;;;;;;;25.05;11.80;;;13.00;92.00;;;;;;5004642;28;20085;-72
2022/05/15 06:47:49;;;;;;;20.45;11.20;;;13.10;92.20;;;;;;5001527;28;20400;-72
2022/05/15 06:50:16;;;;;;;16.80;11.55;;;13.10;92.20;;;;;;4989396;28;20469;-73
2022/05/15 06:52:42;;;;;;;19.75;10.80;;;13.10;92.20;;;;;;4999717;28;20025;-73
2022/05/15 06:55:14;;;;;;;19.52;10.63;;;13.20;91.80;;;;;;5008062;28;20084;-73
2022/05/15 06:57:42;;;;;;;19.88;10.77;;;13.30;91.50;;;;;;5027063;28;20026;-74
2022/05/15 07:00:13;;;;;;;19.98;10.70;;;13.40;91.40;;;;;;4987639;28;20136;-74
2022/05/15 07:02:41;;;;;;;20.70;10.43;;;13.50;91.10;;;;;;5021641;28;20038;-73
2022/05/15 07:05:09;;;;;;;21.48;11.00;;;13.60;90.70;;;;;;4996707;28;20034;-73
2022/05/15 07:07:34;;;;;;;23.80;11.07;;;13.80;90.10;;;;;;5005908;28;20030;-73
2022/05/15 07:10:00;;;;;;;19.00;10.60;;;14.00;90.00;;;;;;4998031;28;20026;-76
2022/05/15 07:12:25;;;;;;;22.10;11.23;;;14.10;89.50;;;;;;4996658;28;20038;-74
2022/05/15 07:14:51;;;;;;;20.73;9.70;;;14.30;89.80;;;;;;4996221;28;20040;-75
2022/05/15 07:17:17;;;;;;;18.27;9.82;;;14.40;88.30;;;;;;5005348;28;20037;-73
2022/05/15 07:19:42;;;;;;;23.88;11.00;;;14.60;87.20;;;;;;5002244;28;20041;-72
2022/05/15 07:22:10;;;;;;;21.40;10.65;;;14.70;86.90;;;;;;4998006;28;20076;-73
2022/05/15 07:24:38;;;;;;;29.38;11.15;;;14.80;87.20;;;;;;5007079;28;20045;-74
2022/05/15 07:27:08;;;;;;;24.10;9.52;;;14.90;86.30;;;;;;5002079;28;20113;-75
2022/05/15 07:29:36;;;;;;;;;;;15.10;85.50;;;;;;5000483;28;20033;-76
2022/05/15 07:32:05;;;;;;;23.50;10.05;;;15.20;85.20;;;;;;5007710;28;20015;-74
2022/05/15 07:34:31;;;;;;;24.75;9.77;;;15.30;85.50;;;;;;5010975;28;20038;-74
2022/05/15 07:36:56;;;;;;;24.23;9.80;;;15.40;83.50;;;;;;5007818;28;20053;-76
2022/05/15 07:39:22;;;;;;;19.60;8.95;;;15.50;83.10;;;;;;5005530;28;20037;-74
2022/05/15 07:41:49;;;;;;;20.98;9.75;;;15.50;82.70;;;;;;4999765;28;20036;-75
2022/05/15 07:44:15;;;;;;;24.13;10.85;;;15.60;82.80;;;;;;5002696;28;20037;-74
2022/05/15 07:46:41;;;;;;;18.63;9.75;;;15.70;81.50;;;;;;5001862;28;20216;-74
2022/05/15 07:49:07;;;;;;;18.80;9.05;;;15.80;81.50;;;;;;5000515;28;20092;-74
2022/05/15 07:51:34;;;;;;;20.52;9.68;;;15.80;81.10;;;;;;5000675;28;20033;-77
2022/05/15 07:54:00;;;;;;;17.55;8.45;;;15.80;79.30;;;;;;5024405;28;20144;-74
2022/05/15 07:56:26;;;;;;;16.15;8.45;;;15.90;78.70;;;;;;5023146;28;20058;-74
2022/05/15 07:58:52;;;;;;;20.75;8.95;;;15.90;79.40;;;;;;5002709;28;20034;-74
2022/05/15 08:01:18;;;;;;;16.95;8.60;;;15.80;79.70;;;;;;5003295;28;20400;-75
2022/05/15 08:03:44;;;;;;;18.92;7.93;;;15.80;79.70;;;;;;5006815;28;20026;-76
2022/05/15 08:08:57;;;;;;;20.13;8.63;;;15.70;79.30;;;;;;5007999;28;20553;-74
2022/05/15 08:11:26;;;;;;;16.23;8.07;;;15.70;79.20;;;;;;5004884;28;20033;-73
2022/05/15 08:13:52;;;;;;;20.52;9.70;;;15.70;79.80;;;;;;5009254;28;20026;-75
2022/05/15 08:16:18;;;;;;;19.80;9.77;;;15.70;81.70;;;;;;5007703;28;20662;-77
2022/05/15 08:24:14;;;;;;;21.55;10.05;;;15.40;84.20;;;;;;5002931;28;20044;-74
2022/05/15 08:26:40;;;;;;;22.77;12.27;;;15.40;83.40;;;;;;5001091;28;20064;-80
2022/05/15 08:29:05;;;;;;;20.70;10.68;;;15.30;84.80;;;;;;5006258;28;20077;-76
2022/05/15 08:31:31;;;;;;;20.65;11.15;;;15.10;86.70;;;;;;5000877;28;20038;-77
2022/05/15 08:33:57;;;;;;;19.73;10.65;;;15.00;87.70;;;;;;5019450;28;20092;-73
2022/05/15 08:36:23;;;;;;;24.35;12.38;;;14.90;88.60;;;;;;5011260;28;20449;-76
2022/05/15 08:38:49;;;;;;;26.30;12.10;;;14.80;90.00;;;;;;4999066;28;20038;-73
2022/05/15 08:41:22;;;;;;;21.52;12.60;;;14.70;90.20;;;;;;5005918;28;20025;-74
2022/05/15 08:44:08;;;;;;;22.65;12.65;;;14.60;90.70;;;;;;4998978;28;21838;-76
2022/05/15 08:46:49;;;;;;;27.30;15.00;;;14.50;91.10;;;;;;5005042;28;20484;-74
2022/05/15 08:49:39;;;;;;;23.48;12.85;;;14.40;91.80;;;;;;5003123;28;20034;-74
2022/05/15 08:52:11;;;;;;;24.05;13.38;;;14.30;91.40;;;;;;5003424;28;20025;-76
2022/05/15 08:54:41;;;;;;;21.85;11.70;;;14.30;91.80;;;;;;5006117;28;20026;-74
2022/05/15 08:57:20;;;;;;;24.75;13.43;;;14.30;92.00;;;;;;5002281;28;20050;-74
2022/05/15 08:59:56;;;;;;;23.83;13.20;;;14.20;92.00;;;;;;4998642;28;20042;-74
2022/05/15 09:02:23;;;;;;;24.58;14.43;;;14.20;92.40;;;;;;5024957;28;20034;-74
2022/05/15 09:04:54;;;;;;;29.88;13.70;;;14.20;93.10;;;;;;5014743;28;20036;-74
2022/05/15 09:07:35;;;;;;;24.25;13.32;;;14.20;92.80;;;;;;5009218;28;20700;-74
2022/05/15 09:10:27;;;;;;;29.52;15.80;;;14.20;93.40;;;;;;4997063;28;20030;-74
2022/05/15 09:13:11;;;;;;;31.15;15.52;;;14.20;93.70;;;;;;5007568;28;20042;-74
2022/05/15 09:15:59;;;;;;;29.02;17.70;;;14.20;93.60;;;;;;5009815;28;20041;-74
2022/05/15 09:18:27;;;;;;;32.75;16.83;;;14.30;93.80;;;;;;5011506;28;20092;-74
2022/05/15 09:20:52;;;;;;;30.17;16.35;;;14.40;94.50;;;;;;5005582;28;20038;-72
2022/05/15 09:23:34;;;;;;;24.90;14.52;;;14.40;94.30;;;;;;5024352;28;20354;-74
2022/05/15 09:26:11;;;;;;;21.20;13.65;;;14.50;94.10;;;;;;5024292;28;20432;-74
2022/05/15 09:28:46;;;;;;;27.08;14.48;;;14.60;94.40;;;;;;5025238;28;20113;-75
2022/05/15 09:31:26;;;;;;;27.67;16.35;;;14.80;94.30;;;;;;5011944;28;20030;-74
2022/05/15 09:33:56;;;;;;;23.33;12.25;;;14.90;93.80;;;;;;5008088;28;20488;-74
2022/05/15 09:36:29;;;;;;;21.88;12.48;;;15.00;92.90;;;;;;5019660;28;20029;-74
2022/05/15 09:39:24;;;;;;;23.60;12.60;;;15.20;92.90;;;;;;5027446;28;20038;-74
2022/05/15 09:44:48;;;;;;;25.10;14.13;;;15.40;92.60;;;;;;5016715;28;20025;-74
2022/05/15 09:47:22;;;;;;;21.52;11.27;;;15.50;91.80;;;;;;5000873;28;20025;-74
2022/05/15 09:49:48;;;;;;;21.70;11.30;;;15.50;90.60;;;;;;5036920;28;20132;-74
2022/05/15 09:52:33;;;;;;;23.17;11.57;;;15.70;91.30;;;;;;5009006;28;20556;-74
2022/05/15 09:55:22;;;;;;;22.30;12.20;;;15.70;91.00;;;;;;5005260;28;20026;-74
2022/05/15 09:57:56;;;;;;;21.48;10.90;;;15.90;90.70;;;;;;5019411;28;20352;-74
2022/05/15 10:00:24;;;;;;;23.40;11.43;;;16.00;90.70;;;;;;5011711;28;20443;-74
2022/05/15 10:02:52;;;;;;;20.15;11.07;;;16.20;89.80;;;;;;5027054;28;20056;-74
2022/05/15 10:05:20;;;;;;;18.27;9.93;;;16.50;90.70;;;;;;5013972;28;20026;-75
2022/05/15 10:08:05;;;;;;;19.27;10.48;;;16.70;88.40;;;;;;5008519;28;20057;-75
2022/05/15 10:10:43;;;;;;;22.85;10.65;;;16.70;88.90;;;;;;5023737;28;20034;-74
2022/05/15 10:13:26;;;;;;;22.10;10.00;;;16.70;87.20;;;;;;5011766;28;20053;-74
2022/05/15 10:15:56;;;;;;;21.42;9.70;;;16.60;86.70;;;;;;5031929;28;20050;-74
2022/05/15 10:18:32;;;;;;;18.67;9.63;;;16.60;87.40;;;;;;5005701;28;20030;-74
2022/05/15 10:21:01;;;;;;;18.15;8.95;;;16.60;87.10;;;;;;5003406;28;20081;-75
2022/05/15 10:23:41;;;;;;;18.75;9.23;;;16.60;85.60;;;;;;5004086;28;20049;-74
2022/05/15 10:26:24;;;;;;;16.42;8.00;;;16.60;86.10;;;;;;4992455;28;20041;-74
2022/05/15 10:29:04;;;;;;;14.30;8.13;;;16.60;84.40;;;;;;5030166;28;20380;-74
2022/05/15 10:31:44;;;;;;;15.05;8.25;;;16.60;85.00;;;;;;5002791;28;20029;-75
2022/05/15 10:34:13;;;;;;;15.23;8.13;;;16.60;84.60;;;;;;5003827;28;20030;-75
2022/05/15 10:36:50;;;;;;;15.13;7.50;;;16.60;85.40;;;;;;5004880;28;20514;-75
2022/05/15 10:39:37;;;;;;;13.93;7.50;;;16.50;84.80;;;;;;5005782;28;20935;-74
2022/05/15 10:42:15;;;;;;;12.25;7.32;;;16.60;84.50;;;;;;5003846;28;20129;-74
2022/05/15 10:45:04;;;;;;;15.00;7.30;;;16.50;84.20;;;;;;5002452;28;20029;-74
2022/05/15 10:47:43;;;;;;;13.15;7.72;;;16.60;84.10;;;;;;4998089;28;20060;-75
2022/05/15 10:50:24;;;;;;;;;;;16.60;84.40;;;;;;5010560;28;20693;-74
2022/05/15 10:57:21;;;;;;;15.43;7.60;;;16.60;83.50;;;;;;5003651;28;19917;-73
2022/05/15 10:59:18;;;;;;;26.55;13.55;;;16.50;85.40;;;;;;5001072;28;20045;-76
2022/05/15 11:01:53;;;;;;;34.13;18.98;;;16.60;85.80;;;;;;4999830;28;20870;-77
2022/05/15 11:04:48;;;;;;;22.40;11.73;;;16.50;87.10;;;;;;5015185;28;20143;-74
2022/05/15 11:07:27;;;;;;;18.70;10.18;;;16.50;86.90;;;;;;5004675;28;20053;-74
2022/05/15 11:10:31;;;;;;;14.23;8.13;;;16.40;87.80;;;;;;5005150;28;20038;-74
2022/05/15 11:13:11;;;;;;;16.88;9.85;;;16.40;88.70;;;;;;5009620;28;20034;-75
2022/05/15 11:15:59;;;;;;;15.50;9.00;;;16.40;89.60;;;;;;5001876;28;20472;-74
2022/05/15 11:19:14;;;;;;;15.07;9.48;;;16.40;89.00;;;;;;5022104;28;20021;-74
2022/05/15 11:22:01;;;;;;;14.45;8.13;;;16.40;88.90;;;;;;4997274;28;20053;-74
2022/05/15 11:24:54;;;;;;;16.08;9.07;;;16.50;88.40;;;;;;5006290;28;20026;-74
2022/05/15 11:27:35;;;;;;;14.90;9.27;;;16.50;90.30;;;;;;5003815;28;20053;-73
2022/05/15 11:30:26;;;;;;;16.63;10.60;;;16.50;90.70;;;;;;5001727;28;20040;-75
2022/05/15 11:32:54;;;;;;;17.42;10.75;;;16.50;91.30;;;;;;5007233;28;20398;-75
2022/05/15 11:35:20;;;;;;;19.45;10.88;;;16.50;91.40;;;;;;5000883;28;20030;-75
2022/05/15 11:38:18;;;;;;;17.40;11.38;;;16.50;91.30;;;;;;5026339;28;20037;-74
2022/05/15 11:40:52;;;;;;;15.95;11.13;;;16.60;92.10;;;;;;5006015;28;20124;-75
2022/05/15 11:43:26;;;;;;;20.42;11.88;;;16.50;91.60;;;;;;5004533;28;20504;-73
2022/05/15 11:45:55;;;;;;;19.88;12.43;;;16.50;91.90;;;;;;5005193;28;20104;-74
2022/05/15 11:48:24;;;;;;;24.33;12.55;;;16.40;92.10;;;;;;5000859;28;20084;-74
2022/05/15 11:50:59;;;;;;;22.25;12.80;;;16.40;92.20;;;;;;5015387;28;20049;-74
2022/05/15 11:53:29;;;;;;;20.58;12.95;;;16.40;92.20;;;;;;5004445;28;20034;-73
2022/05/15 11:55:56;;;;;;;24.20;14.18;;;16.40;92.30;;;;;;5006762;28;20488;-75
2022/05/15 11:58:32;;;;;;;26.77;15.45;;;16.30;92.80;;;;;;5009837;28;20030;-72
2022/05/15 12:01:10;;;;;;;23.52;13.73;;;16.30;93.40;;;;;;5011313;28;20113;-74
2022/05/15 12:03:38;;;;;;;22.15;15.18;;;16.20;93.00;;;;;;5011235;28;20042;-73
2022/05/15 12:06:08;;;;;;;23.33;14.40;;;16.20;93.30;;;;;;5005896;28;20027;-73
2022/05/15 12:08:37;;;;;;;;;;;16.10;93.60;;;;;;4990884;28;20046;-74
2022/05/15 12:11:18;;;;;;;25.00;15.23;;;16.10;93.70;;;;;;5023112;28;19912;-73
2022/05/15 12:13:46;;;;;;;22.02;15.07;;;16.10;94.00;;;;;;4991558;28;20065;-73
2022/05/15 12:16:22;;;;;;;26.65;16.75;;;16.10;93.90;;;;;;5007911;28;20026;-72
2022/05/15 12:18:59;;;;;;;25.58;16.52;;;16.20;94.20;;;;;;4991589;28;20474;-73
2022/05/15 12:21:51;;;;;;;22.35;15.02;;;16.20;94.10;;;;;;4991451;28;20026;-73
2022/05/15 12:24:29;;;;;;;22.30;14.05;;;16.20;93.80;;;;;;5000769;28;20038;-73
2022/05/15 12:27:12;;;;;;;21.25;15.80;;;16.30;94.60;;;;;;5020834;28;20101;-74
2022/05/15 12:29:57;;;;;;;20.05;14.27;;;16.30;94.80;;;;;;5045550;28;20030;-73
2022/05/15 12:32:35;;;;;;;22.63;15.07;;;16.40;95.10;;;;;;5030787;28;20049;-73
2022/05/15 12:35:06;;;;;;;20.48;13.35;;;16.50;94.80;;;;;;5044215;28;20048;-73
2022/05/15 12:37:51;;;;;;;19.90;13.63;;;16.60;94.50;;;;;;5014623;28;20388;-74
2022/05/15 12:40:26;;;;;;;19.95;13.55;;;16.60;94.20;;;;;;4997987;28;20038;-73
2022/05/15 12:42:53;;;;;;;21.13;13.32;;;16.70;93.70;;;;;;4990367;28;20069;-73
2022/05/15 12:45:21;;;;;;;21.20;14.05;;;16.70;93.40;;;;;;5013141;28;20033;-73
2022/05/15 12:48:05;;;;;;;20.42;13.20;;;16.80;94.10;;;;;;5011037;28;20030;-74
2022/05/15 12:50:30;;;;;;;22.48;13.93;;;16.90;94.00;;;;;;5014566;28;20037;-73
2022/05/15 12:52:58;;;;;;;21.65;12.73;;;16.90;93.60;;;;;;5009756;28;20487;-73
2022/05/15 12:55:29;;;;;;;19.65;14.32;;;16.90;92.80;;;;;;5021287;28;20076;-75
2022/05/15 12:57:57;;;;;;;21.55;13.68;;;16.80;92.70;;;;;;5022012;28;20021;-73
2022/05/15 13:00:32;;;;;;;21.98;14.38;;;16.80;93.20;;;;;;5023881;28;20033;-73
2022/05/15 13:03:01;;;;;;;19.38;13.57;;;16.70;93.40;;;;;;5011545;28;20395;-76
2022/05/15 13:05:49;;;;;;;17.60;13.40;;;16.80;93.30;;;;;;5010479;28;20030;-74
2022/05/15 13:08:15;;;;;;;23.70;13.52;;;16.70;92.90;;;;;;5010366;28;20091;-73
2022/05/15 13:11:11;;;;;;;23.05;14.48;;;16.80;92.90;;;;;;5010067;28;20111;-73